sensor_id;sensor_type;location;lat;lon;timestamp;P1;durP1;ratioP1;P2;durP2;ratioP2
27539;SDS011;15906;52.046;4.724;2022-12-08T00:00:22;3.30;;;0.60;;
27539;SDS011;15906;52.046;4.724;2022-12-08T00:02:48;2.03;;;0.50;;
27539;SDS011;15906;52.046;4.724;2022-12-08T00:05:13;1.67;;;0.57;;
27539;SDS011;15906;52.046;4.724;2022-12-08T00:07:58;2.77;;;0.60;;
27539;SDS011;15906;52.046;4.724;2022-12-08T00:10:42;2.00;;;0.63;;
27539;SDS011;15906;52.046;4.724;2022-12-08T00:13:09;1.43;;;0.50;;
27539;SDS011;15906;52.046;4.724;2022-12-08T00:15:34;0.93;;;0.43;;
27539;SDS011;15906;52.046;4.724;2022-12-08T00:18:00;2.23;;;0.60;;
27539;SDS011;15906;52.046;4.724;2022-12-08T00:20:26;0.40;;;0.40;;
27539;SDS011;15906;52.046;4.724;2022-12-08T00:22:51;3.00;;;0.60;;
27539;SDS011;15906;52.046;4.724;2022-12-08T00:25:17;1.50;;;0.53;;
27539;SDS011;15906;52.046;4.724;2022-12-08T00:27:42;1.20;;;0.60;;
27539;SDS011;15906;52.046;4.724;2022-12-08T00:30:08;2.50;;;0.80;;
27539;SDS011;15906;52.046;4.724;2022-12-08T00:32:35;1.83;;;0.50;;
27539;SDS011;15906;52.046;4.724;2022-12-08T00:35:01;0.50;;;0.40;;
27539;SDS011;15906;52.046;4.724;2022-12-08T00:37:28;2.97;;;0.47;;
27539;SDS011;15906;52.046;4.724;2022-12-08T00:39:54;5.33;;;0.70;;
27539;SDS011;15906;52.046;4.724;2022-12-08T00:42:19;1.87;;;0.50;;
27539;SDS011;15906;52.046;4.724;2022-12-08T00:44:45;4.40;;;0.80;;
27539;SDS011;15906;52.046;4.724;2022-12-08T00:47:12;1.80;;;1.07;;
27539;SDS011;15906;52.046;4.724;2022-12-08T00:49:38;1.87;;;1.20;;
27539;SDS011;15906;52.046;4.724;2022-12-08T00:52:04;1.27;;;1.17;;
27539;SDS011;15906;52.046;4.724;2022-12-08T00:54:30;5.07;;;2.50;;
27539;SDS011;15906;52.046;4.724;2022-12-08T00:56:56;7.73;;;2.53;;
27539;SDS011;15906;52.046;4.724;2022-12-08T00:59:21;6.07;;;3.43;;
27539;SDS011;15906;52.046;4.724;2022-12-08T01:01:47;7.60;;;3.93;;
27539;SDS011;15906;52.046;4.724;2022-12-08T01:04:13;5.97;;;4.37;;
27539;SDS011;15906;52.046;4.724;2022-12-08T01:06:41;6.10;;;4.87;;
27539;SDS011;15906;52.046;4.724;2022-12-08T01:09:08;11.63;;;6.10;;
27539;SDS011;15906;52.046;4.724;2022-12-08T01:11:34;7.70;;;5.93;;
27539;SDS011;15906;52.046;4.724;2022-12-08T01:14:01;7.90;;;6.30;;
27539;SDS011;15906;52.046;4.724;2022-12-08T01:16:28;9.43;;;6.37;;
27539;SDS011;15906;52.046;4.724;2022-12-08T01:18:56;8.27;;;6.70;;
27539;SDS011;15906;52.046;4.724;2022-12-08T01:21:22;8.03;;;6.60;;
27539;SDS011;15906;52.046;4.724;2022-12-08T01:23:48;9.93;;;6.40;;
27539;SDS011;15906;52.046;4.724;2022-12-08T01:26:15;19.33;;;7.80;;
27539;SDS011;15906;52.046;4.724;2022-12-08T01:28:42;10.27;;;6.30;;
27539;SDS011;15906;52.046;4.724;2022-12-08T01:31:12;8.37;;;5.10;;
27539;SDS011;15906;52.046;4.724;2022-12-08T01:33:40;9.87;;;5.80;;
27539;SDS011;15906;52.046;4.724;2022-12-08T01:36:06;9.60;;;5.30;;
27539;SDS011;15906;52.046;4.724;2022-12-08T01:38:33;7.63;;;4.43;;
27539;SDS011;15906;52.046;4.724;2022-12-08T01:40:59;4.60;;;3.23;;
27539;SDS011;15906;52.046;4.724;2022-12-08T01:43:25;5.97;;;2.67;;
27539;SDS011;15906;52.046;4.724;2022-12-08T01:46:09;4.67;;;2.50;;
27539;SDS011;15906;52.046;4.724;2022-12-08T01:48:34;8.90;;;3.50;;
27539;SDS011;15906;52.046;4.724;2022-12-08T01:51:00;7.57;;;3.40;;
27539;SDS011;15906;52.046;4.724;2022-12-08T01:53:28;10.23;;;3.77;;
27539;SDS011;15906;52.046;4.724;2022-12-08T01:56:07;4.13;;;2.67;;
27539;SDS011;15906;52.046;4.724;2022-12-08T01:58:39;6.23;;;2.30;;
27539;SDS011;15906;52.046;4.724;2022-12-08T02:01:08;2.70;;;1.50;;
27539;SDS011;15906;52.046;4.724;2022-12-08T02:03:37;5.83;;;2.80;;
27539;SDS011;15906;52.046;4.724;2022-12-08T02:06:06;2.67;;;2.37;;
27539;SDS011;15906;52.046;4.724;2022-12-08T02:08:33;2.67;;;1.60;;
27539;SDS011;15906;52.046;4.724;2022-12-08T02:11:00;6.03;;;1.10;;
27539;SDS011;15906;52.046;4.724;2022-12-08T02:13:25;4.40;;;1.37;;
27539;SDS011;15906;52.046;4.724;2022-12-08T02:21:12;5.13;;;1.50;;
27539;SDS011;15906;52.046;4.724;2022-12-08T02:37:16;8.70;;;3.83;;
27539;SDS011;15906;52.046;4.724;2022-12-08T02:40:06;5.63;;;4.10;;
27539;SDS011;15906;52.046;4.724;2022-12-08T02:43:13;7.60;;;5.10;;
27539;SDS011;15906;52.046;4.724;2022-12-08T02:45:48;9.23;;;6.00;;
27539;SDS011;15906;52.046;4.724;2022-12-08T02:48:17;9.70;;;6.23;;
27539;SDS011;15906;52.046;4.724;2022-12-08T02:50:43;8.27;;;6.37;;
27539;SDS011;15906;52.046;4.724;2022-12-08T02:53:08;9.57;;;6.03;;
27539;SDS011;15906;52.046;4.724;2022-12-08T03:03:29;6.80;;;3.90;;
27539;SDS011;15906;52.046;4.724;2022-12-08T03:06:12;7.03;;;4.07;;
27539;SDS011;15906;52.046;4.724;2022-12-08T03:08:50;5.23;;;3.10;;
27539;SDS011;15906;52.046;4.724;2022-12-08T03:11:31;4.93;;;2.63;;
27539;SDS011;15906;52.046;4.724;2022-12-08T03:14:08;4.33;;;1.93;;
27539;SDS011;15906;52.046;4.724;2022-12-08T03:16:38;4.50;;;1.90;;
27539;SDS011;15906;52.046;4.724;2022-12-08T03:21:37;3.83;;;0.70;;
27539;SDS011;15906;52.046;4.724;2022-12-08T03:24:05;0.57;;;0.50;;
27539;SDS011;15906;52.046;4.724;2022-12-08T03:26:35;2.50;;;0.50;;
27539;SDS011;15906;52.046;4.724;2022-12-08T03:29:03;5.97;;;0.83;;
27539;SDS011;15906;52.046;4.724;2022-12-08T03:31:30;3.10;;;0.77;;
27539;SDS011;15906;52.046;4.724;2022-12-08T03:33:58;1.47;;;0.57;;
27539;SDS011;15906;52.046;4.724;2022-12-08T03:36:25;1.83;;;0.57;;
27539;SDS011;15906;52.046;4.724;2022-12-08T03:38:51;2.00;;;0.47;;
27539;SDS011;15906;52.046;4.724;2022-12-08T03:41:18;0.97;;;0.40;;
27539;SDS011;15906;52.046;4.724;2022-12-08T03:43:46;4.67;;;0.50;;
27539;SDS011;15906;52.046;4.724;2022-12-08T03:46:19;2.57;;;0.53;;
27539;SDS011;15906;52.046;4.724;2022-12-08T03:48:46;0.70;;;0.40;;
27539;SDS011;15906;52.046;4.724;2022-12-08T03:51:12;4.00;;;0.47;;
27539;SDS011;15906;52.046;4.724;2022-12-08T03:53:39;2.40;;;0.83;;
27539;SDS011;15906;52.046;4.724;2022-12-08T03:56:05;3.90;;;0.60;;
27539;SDS011;15906;52.046;4.724;2022-12-08T03:58:47;6.80;;;1.10;;
27539;SDS011;15906;52.046;4.724;2022-12-08T04:01:12;2.73;;;0.63;;
27539;SDS011;15906;52.046;4.724;2022-12-08T04:03:38;1.97;;;0.60;;
27539;SDS011;15906;52.046;4.724;2022-12-08T04:06:04;1.63;;;0.60;;
27539;SDS011;15906;52.046;4.724;2022-12-08T04:08:30;3.60;;;0.40;;
27539;SDS011;15906;52.046;4.724;2022-12-08T04:10:56;1.30;;;0.60;;
27539;SDS011;15906;52.046;4.724;2022-12-08T04:13:21;2.90;;;0.50;;
27539;SDS011;15906;52.046;4.724;2022-12-08T04:15:47;1.87;;;0.60;;
27539;SDS011;15906;52.046;4.724;2022-12-08T04:18:13;2.93;;;0.47;;
27539;SDS011;15906;52.046;4.724;2022-12-08T04:20:39;4.93;;;0.50;;
27539;SDS011;15906;52.046;4.724;2022-12-08T04:23:06;5.70;;;0.70;;
27539;SDS011;15906;52.046;4.724;2022-12-08T04:25:32;5.43;;;0.53;;
27539;SDS011;15906;52.046;4.724;2022-12-08T04:27:58;2.43;;;0.60;;
27539;SDS011;15906;52.046;4.724;2022-12-08T04:30:24;2.63;;;0.50;;
27539;SDS011;15906;52.046;4.724;2022-12-08T04:32:49;3.57;;;0.57;;
27539;SDS011;15906;52.046;4.724;2022-12-08T04:35:15;1.10;;;0.40;;
27539;SDS011;15906;52.046;4.724;2022-12-08T04:37:41;2.37;;;0.40;;
27539;SDS011;15906;52.046;4.724;2022-12-08T04:40:08;4.47;;;0.60;;
27539;SDS011;15906;52.046;4.724;2022-12-08T04:42:35;4.70;;;0.60;;
27539;SDS011;15906;52.046;4.724;2022-12-08T04:45:00;4.37;;;0.53;;
27539;SDS011;15906;52.046;4.724;2022-12-08T04:47:26;1.57;;;0.40;;
27539;SDS011;15906;52.046;4.724;2022-12-08T04:49:52;6.00;;;0.70;;
27539;SDS011;15906;52.046;4.724;2022-12-08T04:52:17;6.20;;;0.50;;
27539;SDS011;15906;52.046;4.724;2022-12-08T04:54:43;2.20;;;0.47;;
27539;SDS011;15906;52.046;4.724;2022-12-08T04:57:08;2.53;;;0.50;;
27539;SDS011;15906;52.046;4.724;2022-12-08T04:59:34;5.03;;;0.50;;
27539;SDS011;15906;52.046;4.724;2022-12-08T05:02:00;5.20;;;0.50;;
27539;SDS011;15906;52.046;4.724;2022-12-08T05:04:25;5.80;;;0.60;;
27539;SDS011;15906;52.046;4.724;2022-12-08T05:06:51;2.77;;;0.43;;
27539;SDS011;15906;52.046;4.724;2022-12-08T05:09:17;3.73;;;0.43;;
27539;SDS011;15906;52.046;4.724;2022-12-08T05:11:42;3.33;;;0.60;;
27539;SDS011;15906;52.046;4.724;2022-12-08T05:14:09;1.70;;;0.40;;
27539;SDS011;15906;52.046;4.724;2022-12-08T05:16:36;3.20;;;0.53;;
27539;SDS011;15906;52.046;4.724;2022-12-08T05:19:03;2.57;;;0.40;;
27539;SDS011;15906;52.046;4.724;2022-12-08T05:21:29;6.27;;;0.60;;
27539;SDS011;15906;52.046;4.724;2022-12-08T05:23:55;3.40;;;0.57;;
27539;SDS011;15906;52.046;4.724;2022-12-08T05:26:20;3.13;;;0.50;;
27539;SDS011;15906;52.046;4.724;2022-12-08T05:28:46;5.37;;;0.77;;
27539;SDS011;15906;52.046;4.724;2022-12-08T05:31:12;3.33;;;0.73;;
27539;SDS011;15906;52.046;4.724;2022-12-08T05:33:38;2.77;;;0.97;;
27539;SDS011;15906;52.046;4.724;2022-12-08T05:36:04;4.07;;;1.10;;
27539;SDS011;15906;52.046;4.724;2022-12-08T05:38:30;7.27;;;0.90;;
27539;SDS011;15906;52.046;4.724;2022-12-08T05:40:55;4.07;;;0.80;;
27539;SDS011;15906;52.046;4.724;2022-12-08T05:43:21;2.80;;;0.73;;
27539;SDS011;15906;52.046;4.724;2022-12-08T05:45:46;2.43;;;0.57;;
27539;SDS011;15906;52.046;4.724;2022-12-08T05:48:12;1.60;;;0.40;;
27539;SDS011;15906;52.046;4.724;2022-12-08T05:50:38;2.23;;;0.50;;
27539;SDS011;15906;52.046;4.724;2022-12-08T05:53:04;2.50;;;0.40;;
27539;SDS011;15906;52.046;4.724;2022-12-08T05:55:29;1.27;;;0.50;;
27539;SDS011;15906;52.046;4.724;2022-12-08T05:57:56;1.87;;;0.50;;
27539;SDS011;15906;52.046;4.724;2022-12-08T06:00:21;1.00;;;0.40;;
27539;SDS011;15906;52.046;4.724;2022-12-08T06:02:47;1.03;;;0.50;;
27539;SDS011;15906;52.046;4.724;2022-12-08T06:05:12;2.20;;;0.60;;
27539;SDS011;15906;52.046;4.724;2022-12-08T06:07:38;1.03;;;0.67;;
27539;SDS011;15906;52.046;4.724;2022-12-08T06:10:04;3.90;;;2.07;;
27539;SDS011;15906;52.046;4.724;2022-12-08T06:12:30;2.10;;;1.00;;
27539;SDS011;15906;52.046;4.724;2022-12-08T06:14:55;0.80;;;0.60;;
27539;SDS011;15906;52.046;4.724;2022-12-08T06:17:21;0.50;;;0.40;;
27539;SDS011;15906;52.046;4.724;2022-12-08T06:19:47;0.57;;;0.47;;
27539;SDS011;15906;52.046;4.724;2022-12-08T06:22:12;4.40;;;1.27;;
27539;SDS011;15906;52.046;4.724;2022-12-08T06:24:38;3.00;;;1.30;;
27539;SDS011;15906;52.046;4.724;2022-12-08T06:27:03;1.30;;;0.80;;
27539;SDS011;15906;52.046;4.724;2022-12-08T06:29:29;0.50;;;0.50;;
27539;SDS011;15906;52.046;4.724;2022-12-08T06:31:54;0.53;;;0.50;;
27539;SDS011;15906;52.046;4.724;2022-12-08T06:34:20;2.00;;;0.60;;
27539;SDS011;15906;52.046;4.724;2022-12-08T06:36:45;2.20;;;0.50;;
27539;SDS011;15906;52.046;4.724;2022-12-08T06:39:11;1.73;;;0.47;;
27539;SDS011;15906;52.046;4.724;2022-12-08T06:41:36;0.40;;;0.40;;
27539;SDS011;15906;52.046;4.724;2022-12-08T06:44:22;1.80;;;0.63;;
27539;SDS011;15906;52.046;4.724;2022-12-08T06:46:47;2.97;;;0.67;;
27539;SDS011;15906;52.046;4.724;2022-12-08T06:49:13;0.77;;;0.50;;
27539;SDS011;15906;52.046;4.724;2022-12-08T06:51:38;0.87;;;0.57;;
27539;SDS011;15906;52.046;4.724;2022-12-08T06:54:04;2.43;;;0.77;;
27539;SDS011;15906;52.046;4.724;2022-12-08T06:56:30;1.70;;;0.77;;
27539;SDS011;15906;52.046;4.724;2022-12-08T06:58:55;0.80;;;0.67;;
27539;SDS011;15906;52.046;4.724;2022-12-08T07:01:21;6.00;;;0.63;;
27539;SDS011;15906;52.046;4.724;2022-12-08T07:03:46;1.13;;;0.67;;
27539;SDS011;15906;52.046;4.724;2022-12-08T07:06:17;1.80;;;0.73;;
27539;SDS011;15906;52.046;4.724;2022-12-08T07:08:46;2.13;;;0.80;;
27539;SDS011;15906;52.046;4.724;2022-12-08T07:11:11;1.40;;;0.60;;
27539;SDS011;15906;52.046;4.724;2022-12-08T07:13:37;0.80;;;0.70;;
27539;SDS011;15906;52.046;4.724;2022-12-08T07:16:03;2.93;;;0.70;;
27539;SDS011;15906;52.046;4.724;2022-12-08T07:18:31;2.50;;;0.70;;
27539;SDS011;15906;52.046;4.724;2022-12-08T07:21:01;0.67;;;0.57;;
27539;SDS011;15906;52.046;4.724;2022-12-08T07:23:28;3.40;;;0.80;;
27539;SDS011;15906;52.046;4.724;2022-12-08T07:25:53;1.20;;;0.90;;
27539;SDS011;15906;52.046;4.724;2022-12-08T07:28:19;1.13;;;0.80;;
27539;SDS011;15906;52.046;4.724;2022-12-08T07:30:44;2.63;;;0.90;;
27539;SDS011;15906;52.046;4.724;2022-12-08T07:33:10;1.27;;;0.70;;
27539;SDS011;15906;52.046;4.724;2022-12-08T07:35:35;3.97;;;0.90;;
27539;SDS011;15906;52.046;4.724;2022-12-08T07:38:01;1.03;;;0.80;;
27539;SDS011;15906;52.046;4.724;2022-12-08T07:40:27;1.60;;;0.90;;
27539;SDS011;15906;52.046;4.724;2022-12-08T07:42:52;0.80;;;0.60;;
27539;SDS011;15906;52.046;4.724;2022-12-08T07:45:18;0.97;;;0.70;;
27539;SDS011;15906;52.046;4.724;2022-12-08T07:47:43;1.90;;;0.70;;
27539;SDS011;15906;52.046;4.724;2022-12-08T07:50:09;2.63;;;0.80;;
27539;SDS011;15906;52.046;4.724;2022-12-08T07:52:35;2.33;;;0.80;;
27539;SDS011;15906;52.046;4.724;2022-12-08T07:55:00;1.23;;;0.60;;
27539;SDS011;15906;52.046;4.724;2022-12-08T07:57:26;4.43;;;0.70;;
27539;SDS011;15906;52.046;4.724;2022-12-08T07:59:51;1.63;;;0.83;;
27539;SDS011;15906;52.046;4.724;2022-12-08T08:02:17;2.47;;;0.80;;
27539;SDS011;15906;52.046;4.724;2022-12-08T08:04:43;1.00;;;0.80;;
27539;SDS011;15906;52.046;4.724;2022-12-08T08:07:09;3.17;;;1.10;;
27539;SDS011;15906;52.046;4.724;2022-12-08T08:09:34;3.03;;;1.17;;
27539;SDS011;15906;52.046;4.724;2022-12-08T08:12:00;4.07;;;1.13;;
27539;SDS011;15906;52.046;4.724;2022-12-08T08:14:25;1.97;;;0.90;;
27539;SDS011;15906;52.046;4.724;2022-12-08T08:16:51;1.80;;;1.10;;
27539;SDS011;15906;52.046;4.724;2022-12-08T08:19:16;7.23;;;1.20;;
27539;SDS011;15906;52.046;4.724;2022-12-08T08:21:43;3.13;;;1.33;;
27539;SDS011;15906;52.046;4.724;2022-12-08T08:24:08;5.00;;;1.60;;
27539;SDS011;15906;52.046;4.724;2022-12-08T08:26:35;3.93;;;1.67;;
27539;SDS011;15906;52.046;4.724;2022-12-08T08:29:00;5.03;;;1.80;;
27539;SDS011;15906;52.046;4.724;2022-12-08T08:31:26;4.27;;;1.70;;
27539;SDS011;15906;52.046;4.724;2022-12-08T08:33:52;7.37;;;1.90;;
27539;SDS011;15906;52.046;4.724;2022-12-08T08:36:18;6.07;;;1.77;;
27539;SDS011;15906;52.046;4.724;2022-12-08T08:38:43;5.00;;;1.93;;
27539;SDS011;15906;52.046;4.724;2022-12-08T08:41:09;3.67;;;1.87;;
27539;SDS011;15906;52.046;4.724;2022-12-08T08:43:35;7.30;;;2.17;;
27539;SDS011;15906;52.046;4.724;2022-12-08T08:46:01;2.83;;;2.00;;
27539;SDS011;15906;52.046;4.724;2022-12-08T08:48:28;4.50;;;2.00;;
27539;SDS011;15906;52.046;4.724;2022-12-08T08:50:55;2.73;;;1.70;;
27539;SDS011;15906;52.046;4.724;2022-12-08T08:53:22;5.77;;;1.87;;
27539;SDS011;15906;52.046;4.724;2022-12-08T08:55:48;2.57;;;1.87;;
27539;SDS011;15906;52.046;4.724;2022-12-08T08:58:14;5.33;;;1.57;;
27539;SDS011;15906;52.046;4.724;2022-12-08T09:00:40;5.83;;;1.73;;
27539;SDS011;15906;52.046;4.724;2022-12-08T09:03:06;8.03;;;2.00;;
27539;SDS011;15906;52.046;4.724;2022-12-08T09:05:31;3.17;;;1.47;;
27539;SDS011;15906;52.046;4.724;2022-12-08T09:07:57;2.87;;;1.60;;
27539;SDS011;15906;52.046;4.724;2022-12-08T09:10:22;2.27;;;1.30;;
27539;SDS011;15906;52.046;4.724;2022-12-08T09:12:48;4.17;;;1.30;;
27539;SDS011;15906;52.046;4.724;2022-12-08T09:15:13;1.43;;;1.20;;
27539;SDS011;15906;52.046;4.724;2022-12-08T09:17:39;3.00;;;1.20;;
27539;SDS011;15906;52.046;4.724;2022-12-08T09:20:05;2.03;;;1.10;;
27539;SDS011;15906;52.046;4.724;2022-12-08T09:22:31;3.60;;;1.20;;
27539;SDS011;15906;52.046;4.724;2022-12-08T09:24:57;1.77;;;0.87;;
27539;SDS011;15906;52.046;4.724;2022-12-08T09:27:22;1.43;;;0.90;;
27539;SDS011;15906;52.046;4.724;2022-12-08T09:29:48;2.33;;;0.87;;
27539;SDS011;15906;52.046;4.724;2022-12-08T09:32:13;6.13;;;1.10;;
27539;SDS011;15906;52.046;4.724;2022-12-08T09:34:39;2.37;;;1.00;;
27539;SDS011;15906;52.046;4.724;2022-12-08T09:37:04;3.90;;;0.90;;
27539;SDS011;15906;52.046;4.724;2022-12-08T09:39:30;3.60;;;0.90;;
27539;SDS011;15906;52.046;4.724;2022-12-08T09:42:02;4.87;;;1.13;;
27539;SDS011;15906;52.046;4.724;2022-12-08T09:53:14;3.00;;;1.30;;
27539;SDS011;15906;52.046;4.724;2022-12-08T09:56:02;3.03;;;1.73;;
27539;SDS011;15906;52.046;4.724;2022-12-08T09:58:43;2.23;;;1.50;;
27539;SDS011;15906;52.046;4.724;2022-12-08T10:01:27;2.03;;;1.60;;
27539;SDS011;15906;52.046;4.724;2022-12-08T10:03:56;4.07;;;1.57;;
27539;SDS011;15906;52.046;4.724;2022-12-08T10:09:11;3.13;;;2.60;;
27539;SDS011;15906;52.046;4.724;2022-12-08T10:17:32;5.63;;;3.47;;
27539;SDS011;15906;52.046;4.724;2022-12-08T10:20:12;4.67;;;3.50;;
27539;SDS011;15906;52.046;4.724;2022-12-08T10:22:41;3.63;;;2.67;;
27539;SDS011;15906;52.046;4.724;2022-12-08T10:25:16;4.60;;;3.17;;
27539;SDS011;15906;52.046;4.724;2022-12-08T10:27:45;3.63;;;2.83;;
27539;SDS011;15906;52.046;4.724;2022-12-08T10:30:13;3.27;;;2.87;;
27539;SDS011;15906;52.046;4.724;2022-12-08T10:32:43;6.83;;;3.20;;
27539;SDS011;15906;52.046;4.724;2022-12-08T10:35:12;4.10;;;3.33;;
27539;SDS011;15906;52.046;4.724;2022-12-08T10:37:39;3.90;;;3.27;;
27539;SDS011;15906;52.046;4.724;2022-12-08T10:40:16;3.90;;;3.10;;
27539;SDS011;15906;52.046;4.724;2022-12-08T10:42:42;4.50;;;2.93;;
27539;SDS011;15906;52.046;4.724;2022-12-08T10:45:16;3.57;;;2.90;;
27539;SDS011;15906;52.046;4.724;2022-12-08T10:48:03;4.37;;;3.17;;
27539;SDS011;15906;52.046;4.724;2022-12-08T10:50:35;5.50;;;2.97;;
27539;SDS011;15906;52.046;4.724;2022-12-08T10:56:04;5.30;;;2.70;;
27539;SDS011;15906;52.046;4.724;2022-12-08T10:58:34;4.80;;;2.67;;
27539;SDS011;15906;52.046;4.724;2022-12-08T11:01:12;5.37;;;2.80;;
27539;SDS011;15906;52.046;4.724;2022-12-08T11:03:49;3.37;;;2.50;;
27539;SDS011;15906;52.046;4.724;2022-12-08T11:06:19;6.73;;;2.40;;
27539;SDS011;15906;52.046;4.724;2022-12-08T11:08:53;4.13;;;2.13;;
27539;SDS011;15906;52.046;4.724;2022-12-08T11:11:36;3.67;;;2.17;;
27539;SDS011;15906;52.046;4.724;2022-12-08T11:14:11;5.87;;;2.30;;
27539;SDS011;15906;52.046;4.724;2022-12-08T11:16:42;7.03;;;2.40;;
27539;SDS011;15906;52.046;4.724;2022-12-08T11:19:11;4.57;;;2.10;;
27539;SDS011;15906;52.046;4.724;2022-12-08T11:21:39;5.70;;;2.00;;
27539;SDS011;15906;52.046;4.724;2022-12-08T11:24:28;3.67;;;1.63;;
27539;SDS011;15906;52.046;4.724;2022-12-08T11:26:58;2.23;;;1.40;;
27539;SDS011;15906;52.046;4.724;2022-12-08T11:29:30;3.17;;;1.60;;
27539;SDS011;15906;52.046;4.724;2022-12-08T11:31:58;2.43;;;1.10;;
27539;SDS011;15906;52.046;4.724;2022-12-08T11:34:29;1.60;;;1.00;;
27539;SDS011;15906;52.046;4.724;2022-12-08T11:37:05;3.17;;;1.03;;
27539;SDS011;15906;52.046;4.724;2022-12-08T11:39:34;2.30;;;1.47;;
27539;SDS011;15906;52.046;4.724;2022-12-08T11:42:03;2.67;;;1.20;;
27539;SDS011;15906;52.046;4.724;2022-12-08T11:44:36;2.23;;;1.10;;
27539;SDS011;15906;52.046;4.724;2022-12-08T11:47:28;4.13;;;1.50;;
27539;SDS011;15906;52.046;4.724;2022-12-08T11:50:01;3.43;;;1.50;;
27539;SDS011;15906;52.046;4.724;2022-12-08T11:52:46;4.03;;;1.60;;
27539;SDS011;15906;52.046;4.724;2022-12-08T11:57:48;3.97;;;1.60;;
27539;SDS011;15906;52.046;4.724;2022-12-08T12:00:15;2.40;;;1.60;;
27539;SDS011;15906;52.046;4.724;2022-12-08T12:02:43;3.23;;;1.90;;
27539;SDS011;15906;52.046;4.724;2022-12-08T12:11:15;3.33;;;2.07;;
27539;SDS011;15906;52.046;4.724;2022-12-08T12:16:53;2.13;;;1.10;;
27539;SDS011;15906;52.046;4.724;2022-12-08T12:19:24;1.50;;;1.00;;
27539;SDS011;15906;52.046;4.724;2022-12-08T12:21:54;1.33;;;0.80;;
27539;SDS011;15906;52.046;4.724;2022-12-08T12:24:21;5.03;;;1.10;;
27539;SDS011;15906;52.046;4.724;2022-12-08T12:26:53;2.47;;;0.70;;
27539;SDS011;15906;52.046;4.724;2022-12-08T12:29:26;1.13;;;0.60;;
27539;SDS011;15906;52.046;4.724;2022-12-08T12:31:58;1.17;;;0.60;;
27539;SDS011;15906;52.046;4.724;2022-12-08T12:34:28;1.13;;;0.73;;
27539;SDS011;15906;52.046;4.724;2022-12-08T12:37:13;0.77;;;0.50;;
27539;SDS011;15906;52.046;4.724;2022-12-08T12:43:10;1.73;;;0.53;;
27539;SDS011;15906;52.046;4.724;2022-12-08T12:47:46;2.67;;;0.67;;
27539;SDS011;15906;52.046;4.724;2022-12-08T13:00:45;3.03;;;0.80;;
27539;SDS011;15906;52.046;4.724;2022-12-08T13:03:12;2.17;;;1.10;;
27539;SDS011;15906;52.046;4.724;2022-12-08T13:05:47;1.60;;;0.60;;
27539;SDS011;15906;52.046;4.724;2022-12-08T13:11:00;1.20;;;0.90;;
27539;SDS011;15906;52.046;4.724;2022-12-08T13:13:28;2.90;;;0.90;;
27539;SDS011;15906;52.046;4.724;2022-12-08T13:15:55;2.37;;;1.10;;
27539;SDS011;15906;52.046;4.724;2022-12-08T13:39:27;3.37;;;1.83;;
27539;SDS011;15906;52.046;4.724;2022-12-08T13:42:01;2.90;;;2.03;;
27539;SDS011;15906;52.046;4.724;2022-12-08T13:47:22;4.10;;;2.33;;
27539;SDS011;15906;52.046;4.724;2022-12-08T13:50:11;3.37;;;2.17;;
27539;SDS011;15906;52.046;4.724;2022-12-08T13:56:02;3.90;;;2.20;;
27539;SDS011;15906;52.046;4.724;2022-12-08T13:58:23;5.90;;;3.03;;
27539;SDS011;15906;52.046;4.724;2022-12-08T14:03:51;2.73;;;1.90;;
27539;SDS011;15906;52.046;4.724;2022-12-08T14:06:18;6.83;;;2.27;;
27539;SDS011;15906;52.046;4.724;2022-12-08T14:08:53;2.73;;;1.97;;
27539;SDS011;15906;52.046;4.724;2022-12-08T14:11:28;4.03;;;2.00;;
27539;SDS011;15906;52.046;4.724;2022-12-08T14:14:17;5.77;;;1.80;;
27539;SDS011;15906;52.046;4.724;2022-12-08T14:16:52;4.13;;;1.60;;
27539;SDS011;15906;52.046;4.724;2022-12-08T14:19:26;5.00;;;1.70;;
27539;SDS011;15906;52.046;4.724;2022-12-08T14:22:00;3.43;;;2.10;;
27539;SDS011;15906;52.046;4.724;2022-12-08T14:24:27;4.37;;;1.77;;
27539;SDS011;15906;52.046;4.724;2022-12-08T14:27:01;4.17;;;2.07;;
27539;SDS011;15906;52.046;4.724;2022-12-08T14:29:34;3.20;;;1.93;;
27539;SDS011;15906;52.046;4.724;2022-12-08T14:32:17;3.27;;;2.00;;
27539;SDS011;15906;52.046;4.724;2022-12-08T14:35:37;5.27;;;2.23;;
27539;SDS011;15906;52.046;4.724;2022-12-08T14:37:50;4.00;;;2.20;;
27539;SDS011;15906;52.046;4.724;2022-12-08T14:40:22;4.80;;;2.00;;
27539;SDS011;15906;52.046;4.724;2022-12-08T14:53:23;2.40;;;1.70;;
27539;SDS011;15906;52.046;4.724;2022-12-08T14:55:49;1.23;;;1.07;;
27539;SDS011;15906;52.046;4.724;2022-12-08T14:58:26;2.20;;;1.00;;
27539;SDS011;15906;52.046;4.724;2022-12-08T15:00:57;1.20;;;1.10;;
27539;SDS011;15906;52.046;4.724;2022-12-08T15:03:24;4.20;;;1.03;;
27539;SDS011;15906;52.046;4.724;2022-12-08T15:05:55;2.63;;;1.13;;
27539;SDS011;15906;52.046;4.724;2022-12-08T15:08:24;2.27;;;1.30;;
27539;SDS011;15906;52.046;4.724;2022-12-08T15:13:48;3.00;;;1.80;;
27539;SDS011;15906;52.046;4.724;2022-12-08T15:19:05;3.50;;;2.23;;
27539;SDS011;15906;52.046;4.724;2022-12-08T15:21:40;2.80;;;2.37;;
27539;SDS011;15906;52.046;4.724;2022-12-08T15:24:09;4.20;;;2.73;;
27539;SDS011;15906;52.046;4.724;2022-12-08T15:26:40;3.37;;;2.30;;
27539;SDS011;15906;52.046;4.724;2022-12-08T15:29:25;3.70;;;2.03;;
27539;SDS011;15906;52.046;4.724;2022-12-08T15:31:54;3.77;;;2.37;;
27539;SDS011;15906;52.046;4.724;2022-12-08T15:34:21;3.90;;;2.57;;
27539;SDS011;15906;52.046;4.724;2022-12-08T15:36:48;3.77;;;2.70;;
27539;SDS011;15906;52.046;4.724;2022-12-08T15:39:19;4.10;;;2.80;;
27539;SDS011;15906;52.046;4.724;2022-12-08T15:42:04;4.53;;;2.73;;
27539;SDS011;15906;52.046;4.724;2022-12-08T15:44:34;4.63;;;3.20;;
27539;SDS011;15906;52.046;4.724;2022-12-08T15:47:00;4.57;;;3.00;;
27539;SDS011;15906;52.046;4.724;2022-12-08T15:49:25;4.53;;;2.80;;
27539;SDS011;15906;52.046;4.724;2022-12-08T15:51:51;5.10;;;2.90;;
27539;SDS011;15906;52.046;4.724;2022-12-08T15:54:17;4.90;;;2.60;;
27539;SDS011;15906;52.046;4.724;2022-12-08T15:56:48;5.53;;;2.57;;
27539;SDS011;15906;52.046;4.724;2022-12-08T15:59:16;6.60;;;3.07;;
27539;SDS011;15906;52.046;4.724;2022-12-08T16:01:43;3.23;;;2.57;;
27539;SDS011;15906;52.046;4.724;2022-12-08T16:04:10;4.77;;;3.30;;
27539;SDS011;15906;52.046;4.724;2022-12-08T16:06:39;6.70;;;2.70;;
27539;SDS011;15906;52.046;4.724;2022-12-08T16:09:10;4.03;;;2.67;;
27539;SDS011;15906;52.046;4.724;2022-12-08T16:11:53;4.00;;;2.73;;
27539;SDS011;15906;52.046;4.724;2022-12-08T16:14:37;4.23;;;2.70;;
27539;SDS011;15906;52.046;4.724;2022-12-08T16:17:05;5.30;;;3.03;;
27539;SDS011;15906;52.046;4.724;2022-12-08T16:19:39;6.67;;;2.37;;
27539;SDS011;15906;52.046;4.724;2022-12-08T16:22:05;3.47;;;2.27;;
27539;SDS011;15906;52.046;4.724;2022-12-08T16:24:31;3.03;;;2.40;;
27539;SDS011;15906;52.046;4.724;2022-12-08T16:26:57;3.43;;;2.50;;
27539;SDS011;15906;52.046;4.724;2022-12-08T16:29:22;5.60;;;2.20;;
27539;SDS011;15906;52.046;4.724;2022-12-08T16:31:48;3.20;;;2.33;;
27539;SDS011;15906;52.046;4.724;2022-12-08T16:34:14;5.47;;;2.60;;
27539;SDS011;15906;52.046;4.724;2022-12-08T16:36:40;5.17;;;2.53;;
27539;SDS011;15906;52.046;4.724;2022-12-08T16:39:05;5.47;;;2.43;;
27539;SDS011;15906;52.046;4.724;2022-12-08T16:41:31;6.97;;;2.63;;
27539;SDS011;15906;52.046;4.724;2022-12-08T16:44:15;4.53;;;3.07;;
27539;SDS011;15906;52.046;4.724;2022-12-08T16:46:41;5.77;;;3.37;;
27539;SDS011;15906;52.046;4.724;2022-12-08T16:49:07;7.93;;;3.77;;
27539;SDS011;15906;52.046;4.724;2022-12-08T16:51:33;6.37;;;3.70;;
27539;SDS011;15906;52.046;4.724;2022-12-08T16:53:59;8.03;;;3.90;;
27539;SDS011;15906;52.046;4.724;2022-12-08T16:56:24;7.47;;;4.23;;
27539;SDS011;15906;52.046;4.724;2022-12-08T16:58:51;8.50;;;4.10;;
27539;SDS011;15906;52.046;4.724;2022-12-08T17:01:17;7.87;;;4.10;;
27539;SDS011;15906;52.046;4.724;2022-12-08T17:03:43;7.83;;;3.93;;